EDT,Max TemperatureF,Mean TemperatureF,Min TemperatureF,Max Dew PointF,MeanDew PointF,Min DewpointF,Max Humidity, Mean Humidity, Min Humidity, Max Sea Level PressureIn, Mean Sea Level PressureIn, Min Sea Level PressureIn, Max VisibilityMiles, Mean VisibilityMiles, Min VisibilityMiles, Max Wind SpeedMPH, Mean Wind SpeedMPH, Max Gust SpeedMPH,PrecipitationIn, CloudCover, Events, WindDirDegrees
2012-6-1,62,56,50,59,53,47,100,84,67,29.88,29.74,29.63,10,6,1,17,7,23,0.01,7,Rain,289
2012-6-2,70,60,49,56,48,44,93,69,44,29.91,29.87,29.84,10,10,5,17,7,24,0.03,3,Rain,245
2012-6-3,81,67,52,57,53,50,96,67,37,29.91,29.86,29.82,10,10,10,16,4,22,0.00,1,,277
2012-6-4,68,62,56,63,59,54,100,84,68,29.89,29.84,29.78,10,8,1,9,2,23,0.13,4,Rain,323
2012-6-5,76,63,49,55,50,47,93,66,38,29.96,29.90,29.84,10,10,10,18,7,22,0.00,2,,37
2012-6-6,78,62,45,50,47,44,93,63,33,30.05,30.00,29.96,10,10,10,16,5,26,0.00,1,,38
2012-6-7,83,65,47,54,48,45,93,61,28,30.11,30.07,30.04,10,10,9,12,3,16,0.00,0,,33
2012-6-8,85,68,51,55,50,43,96,60,23,30.11,30.05,29.97,10,10,10,9,2,13,0.00,1,,261
2012-6-9,87,70,52,60,54,47,93,60,27,30.03,29.98,29.92,10,10,10,14,2,18,0.00,0,,184
2012-6-10,88,73,58,63,60,57,100,70,40,30.01,29.97,29.93,10,10,5,18,6,26,T,1,,157
2012-6-11,84,75,65,69,66,64,90,77,63,29.96,29.92,29.81,10,10,10,16,5,21,0.00,5,,186
2012-6-12,82,72,61,66,52,42,100,62,24,30.06,29.97,29.88,10,10,4,16,5,21,0.00,1,,314
2012-6-13,82,68,53,52,49,44,71,52,33,30.13,30.08,30.04,10,10,10,14,5,23,0.00,0,,58
2012-6-14,86,68,50,52,48,43,96,60,23,30.12,30.08,30.03,10,10,10,13,4,16,0.00,0,,131
2012-6-15,90,70,50,56,51,46,96,60,23,30.12,30.07,30.04,10,10,9,12,2,16,0.00,0,,130
2012-6-16,92,77,61,68,62,56,90,63,36,30.13,30.06,29.98,10,10,10,16,6,22,0.00,0,,202
2012-6-17,86,80,73,68,66,64,79,64,48,29.99,29.92,29.87,10,10,10,18,9,25,0.02,2,,222
2012-6-18,91,81,70,70,64,60,90,64,38,29.94,29.89,29.86,10,10,8,21,10,29,0.01,1,Rain-Thunderstorm,209
2012-6-19,93,81,68,65,62,59,78,56,34,30.07,30.02,29.95,10,10,10,18,8,25,0.00,0,,200
2012-6-20,93,79,64,64,61,56,87,59,30,30.13,30.06,29.99,10,10,10,15,7,21,0.00,0,,191
2012-6-21,92,79,65,66,62,57,87,60,32,30.02,29.97,29.89,10,10,10,20,7,25,0.00,2,,251
2012-6-22,88,74,60,66,59,51,100,65,30,29.99,29.96,29.91,10,6,0,14,4,18,0.00,1,Fog,350
2012-6-23,89,71,52,60,51,45,93,58,22,30.03,29.99,29.96,10,10,10,13,3,18,0.00,0,,76
2012-6-24,92,75,58,61,56,52,90,59,27,30.01,29.96,29.90,10,10,10,10,1,20,0.00,0,,261
2012-6-25,89,79,68,62,53,39,78,48,18,29.95,29.91,29.88,10,10,7,20,9,25,0.00,2,,34
2012-6-26,84,70,56,49,44,38,64,42,20,30.03,29.97,29.93,10,10,10,17,7,24,0.00,0,,76
2012-6-27,92,72,51,52,48,44,89,55,20,30.04,29.97,29.89,10,10,10,13,5,18,0.00,0,,188
2012-6-28,103,85,67,63,57,51,68,45,22,29.91,29.87,29.82,10,10,10,18,9,26,0.00,0,,246
2012-6-29,103,89,74,74,66,58,74,50,25,29.89,29.84,29.79,10,10,10,22,6,26,0.00,0,,268
2012-6-30,98,85,71,71,66,63,84,59,33,29.88,29.83,29.78,10,10,10,18,4,26,0.00,0,,107